createdAt,value
2022-11-17T00:02:06.809Z,40.38
2022-11-17T00:04:33.507Z,39.03
2022-11-17T00:07:00.721Z,42.72
2022-11-17T00:09:27.493Z,41.08
2022-11-17T00:12:12.619Z,44.50
2022-11-17T00:14:41.008Z,42.33
2022-11-17T00:17:10.258Z,40.33
2022-11-17T00:22:21.947Z,39.25
2022-11-17T00:24:49.421Z,42.15
2022-11-17T00:27:16.698Z,43.63
2022-11-17T00:29:43.359Z,40.38
2022-11-17T00:32:32.768Z,39.50
2022-11-17T00:34:59.638Z,41.38
2022-11-17T00:37:27.518Z,40.17
2022-11-17T00:39:59.268Z,37.53
2022-11-17T00:42:27.295Z,39.85
2022-11-17T00:44:53.918Z,39.65
2022-11-17T00:47:20.563Z,40.28
2022-11-17T00:49:47.267Z,40.65
2022-11-17T00:52:13.908Z,36.50
2022-11-17T00:54:40.571Z,38.72
2022-11-17T00:57:07.177Z,36.47
2022-11-17T00:59:33.811Z,37.15
2022-11-17T01:02:00.673Z,41.60
2022-11-17T01:04:27.406Z,40.60
2022-11-17T01:06:54.114Z,40.83
2022-11-17T01:09:22.904Z,40.25
2022-11-17T01:11:50.888Z,41.17
2022-11-17T01:14:21.633Z,39.10
2022-11-17T01:16:48.268Z,38.38
2022-11-17T01:19:15.574Z,40.60
2022-11-17T01:21:42.564Z,37.50
2022-11-17T01:24:11.174Z,38.08
2022-11-17T01:26:38.712Z,36.53
2022-11-17T01:29:05.743Z,38.08
2022-11-17T01:31:38.303Z,35.60
2022-11-17T01:34:05.789Z,38.55
2022-11-17T01:36:53.348Z,37.13
2022-11-17T01:39:20.415Z,35.58
2022-11-17T01:41:47.071Z,38.35
2022-11-17T01:44:51.069Z,36.00
2022-11-17T01:47:27.816Z,34.67
2022-11-17T01:49:57.899Z,35.53
2022-11-17T01:52:25.443Z,35.05
2022-11-17T01:54:53.695Z,35.42
2022-11-17T01:57:28.074Z,36.78
2022-11-17T01:59:58.415Z,37.40
2022-11-17T02:02:25.165Z,37.20
2022-11-17T02:05:31.721Z,36.90
2022-11-17T02:07:59.967Z,34.55
2022-11-17T02:10:28.028Z,35.88
2022-11-17T02:12:55.203Z,35.95
2022-11-17T02:15:22.434Z,39.85
2022-11-17T02:17:49.674Z,35.22
2022-11-17T02:20:42.496Z,34.85
2022-11-17T02:23:17.986Z,33.75
2022-11-17T02:26:12.376Z,35.67
2022-11-17T02:28:50.528Z,35.55
2022-11-17T02:31:37.343Z,37.17
2022-11-17T02:34:11.829Z,38.92
2022-11-17T02:37:07.530Z,36.15
2022-11-17T02:39:40.579Z,37.17
2022-11-17T02:42:47.248Z,37.25
2022-11-17T02:45:18.059Z,37.33
2022-11-17T02:47:46.772Z,36.50
2022-11-17T02:50:14.445Z,38.17
2022-11-17T02:52:41.079Z,37.60
2022-11-17T02:55:10.202Z,38.45
2022-11-17T02:57:39.996Z,39.10
2022-11-17T03:00:11.280Z,39.53
2022-11-17T03:02:37.895Z,37.70
2022-11-17T03:05:14.802Z,38.17
2022-11-17T03:08:15.411Z,38.72
2022-11-17T03:11:00.237Z,37.10
2022-11-17T03:13:33.491Z,36.97
2022-11-17T03:16:23.608Z,39.55
2022-11-17T03:19:19.392Z,34.90
2022-11-17T03:22:06.924Z,37.42
2022-11-17T03:24:43.592Z,36.90
2022-11-17T03:27:19.255Z,33.72
2022-11-17T03:29:49.527Z,37.00
2022-11-17T03:32:17.225Z,30.80
2022-11-17T03:34:55.666Z,33.40
2022-11-17T03:37:23.631Z,35.50
2022-11-17T03:39:53.239Z,30.98
2022-11-17T03:42:31.079Z,35.67
2022-11-17T03:45:02.607Z,33.67
2022-11-17T03:47:30.506Z,34.90
2022-11-17T03:50:15.211Z,34.22
2022-11-17T03:52:42.508Z,34.72
2022-11-17T03:55:09.406Z,35.58
2022-11-17T03:58:09.434Z,34.75
2022-11-17T04:03:02.503Z,31.23
2022-11-17T04:05:29.167Z,33.80
2022-11-17T04:07:55.787Z,36.75
2022-11-17T04:10:27.792Z,36.00
2022-11-17T04:13:13.402Z,33.92
2022-11-17T04:15:59.271Z,34.05
2022-11-17T04:18:27.156Z,37.10
2022-11-17T04:20:55.684Z,37.63
2022-11-17T04:23:23.481Z,35.22
2022-11-17T04:26:10.576Z,38.80
2022-11-17T04:28:40.761Z,38.72
2022-11-17T04:31:07.383Z,40.17
2022-11-17T04:33:34.795Z,38.05
2022-11-17T04:36:02.451Z,39.60
2022-11-17T04:38:29.223Z,37.45
2022-11-17T04:41:25.489Z,32.80
2022-11-17T04:43:52.287Z,33.45
2022-11-17T04:46:20.001Z,29.73
2022-11-17T04:48:47.783Z,31.75
2022-11-17T04:51:15.427Z,30.65
2022-11-17T04:53:42.819Z,31.67
2022-11-17T04:56:10.115Z,39.40
2022-11-17T04:58:36.947Z,36.20
2022-11-17T05:01:13.142Z,36.03
2022-11-17T05:03:45.480Z,37.05
2022-11-17T05:06:17.582Z,36.60
2022-11-17T05:08:44.905Z,37.83
2022-11-17T05:11:31.328Z,36.05
2022-11-17T05:13:58.133Z,40.58
2022-11-17T05:16:43.624Z,38.30
2022-11-17T05:19:17.227Z,39.30
2022-11-17T05:21:43.877Z,40.30
2022-11-17T05:24:10.648Z,42.88
2022-11-17T05:26:38.034Z,42.97
2022-11-17T05:29:06.138Z,37.28
2022-11-17T05:31:33.536Z,35.03
2022-11-17T05:34:00.780Z,34.38
2022-11-17T05:36:27.987Z,35.58
2022-11-17T05:38:55.363Z,42.00
2022-11-17T05:41:23.184Z,42.30
2022-11-17T05:43:50.646Z,32.55
2022-11-17T05:46:20.899Z,34.30
2022-11-17T05:48:52.567Z,32.25
2022-11-17T05:51:21.339Z,27.00
2022-11-17T05:53:48.210Z,32.25
2022-11-17T05:56:33.511Z,25.50
2022-11-17T05:59:12.188Z,30.40
2022-11-17T06:01:42.115Z,33.53
2022-11-17T06:04:09.014Z,37.38
2022-11-17T06:06:36.928Z,29.83
2022-11-17T06:09:04.319Z,29.92
2022-11-17T06:11:30.955Z,31.05
2022-11-17T06:13:57.601Z,30.25
2022-11-17T06:16:26.495Z,27.27
2022-11-17T06:18:59.554Z,32.35
2022-11-17T06:21:26.198Z,30.77
2022-11-17T06:23:52.895Z,32.47
2022-11-17T06:26:19.701Z,34.83
2022-11-17T06:28:47.637Z,36.92
2022-11-17T06:31:14.827Z,37.78
2022-11-17T06:33:41.658Z,34.53
2022-11-17T06:36:08.709Z,29.33
2022-11-17T06:38:36.334Z,34.47
2022-11-17T06:41:08.913Z,33.17
2022-11-17T06:43:38.750Z,45.08
2022-11-17T06:46:05.886Z,60.80
2022-11-17T06:48:35.835Z,36.58
2022-11-17T06:51:04.697Z,30.00
2022-11-17T06:53:33.461Z,24.13
2022-11-17T06:58:39.897Z,19.00
2022-11-17T07:01:08.905Z,27.42
2022-11-17T07:06:05.220Z,25.83
2022-11-17T07:08:32.005Z,16.98
2022-11-17T07:11:06.325Z,16.00
2022-11-17T07:13:33.807Z,14.02
2022-11-17T07:16:26.572Z,15.35
2022-11-17T07:18:53.329Z,12.57
2022-11-17T07:21:20.005Z,15.77
2022-11-17T07:23:46.755Z,13.18
2022-11-17T07:26:14.439Z,16.92
2022-11-17T07:28:41.307Z,14.70
2022-11-17T07:31:09.156Z,17.60
2022-11-17T07:33:36.473Z,14.60
2022-11-17T07:36:05.658Z,15.60
2022-11-17T07:38:34.242Z,17.73
2022-11-17T07:41:01.413Z,15.38
2022-11-17T07:43:28.563Z,17.30
2022-11-17T07:45:55.314Z,14.90
2022-11-17T07:48:22.044Z,14.80
2022-11-17T07:50:49.147Z,15.35
2022-11-17T07:53:15.837Z,15.25
2022-11-17T07:55:42.521Z,16.52
2022-11-17T07:58:09.185Z,16.05
2022-11-17T08:00:36.845Z,17.45
2022-11-17T08:03:04.845Z,16.40
2022-11-17T08:05:39.889Z,16.92
2022-11-17T08:08:10.011Z,19.52
2022-11-17T08:10:36.789Z,19.27
2022-11-17T08:13:03.569Z,17.75
2022-11-17T08:15:30.878Z,37.92
2022-11-17T08:17:59.534Z,17.50
2022-11-17T08:20:27.896Z,14.68
2022-11-17T08:22:55.130Z,15.13
2022-11-17T08:25:23.862Z,13.50
2022-11-17T08:27:52.208Z,12.38
2022-11-17T08:30:20.604Z,12.95
2022-11-17T08:32:52.362Z,47.03
2022-11-17T08:35:21.604Z,34.05
2022-11-17T08:37:48.366Z,29.02
2022-11-17T08:40:15.383Z,17.42
2022-11-17T08:42:42.040Z,18.73
2022-11-17T08:45:10.121Z,12.98
2022-11-17T08:47:37.673Z,10.65
2022-11-17T08:50:06.309Z,12.90
2022-11-17T08:52:33.154Z,12.75
2022-11-17T08:55:00.029Z,14.38
2022-11-17T08:57:26.936Z,14.27
2022-11-17T08:59:53.628Z,15.57
2022-11-17T09:02:20.300Z,14.25
2022-11-17T09:04:47.808Z,12.73
2022-11-17T09:07:14.631Z,15.05
2022-11-17T09:09:41.497Z,14.90
2022-11-17T09:12:08.289Z,16.50
2022-11-17T09:14:35.175Z,18.85
2022-11-17T09:17:01.881Z,15.27
2022-11-17T09:19:28.763Z,16.98
2022-11-17T09:21:55.817Z,15.35
2022-11-17T09:24:22.524Z,14.32
2022-11-17T09:26:49.302Z,13.55
2022-11-17T09:29:15.963Z,13.15
2022-11-17T09:31:42.705Z,13.65
2022-11-17T09:34:09.478Z,12.65
2022-11-17T09:36:36.854Z,11.82
2022-11-17T09:39:04.040Z,11.23
2022-11-17T09:41:42.567Z,10.73
2022-11-17T09:44:17.847Z,12.90
2022-11-17T09:46:56.446Z,9.48
2022-11-17T09:49:55.252Z,8.70
2022-11-17T09:52:48.217Z,8.52
2022-11-17T09:55:21.795Z,7.15
2022-11-17T09:58:14.121Z,7.85
2022-11-17T10:00:42.898Z,8.55
2022-11-17T10:03:18.769Z,6.93
2022-11-17T10:05:45.467Z,7.85
2022-11-17T10:08:17.185Z,8.32
2022-11-17T10:10:51.718Z,8.13
2022-11-17T10:13:28.488Z,7.60
2022-11-17T10:15:58.896Z,7.25
2022-11-17T10:18:26.060Z,9.35
2022-11-17T10:20:52.840Z,8.50
2022-11-17T10:23:20.414Z,9.23
2022-11-17T10:25:49.638Z,8.68
2022-11-17T10:28:42.698Z,9.30
2022-11-17T10:31:13.657Z,9.75
2022-11-17T10:33:45.496Z,9.40
2022-11-17T10:36:22.496Z,8.07
2022-11-17T10:38:52.032Z,8.38
2022-11-17T10:41:25.339Z,8.18
2022-11-17T10:43:58.809Z,8.20
2022-11-17T10:46:25.653Z,8.23
2022-11-17T10:48:56.861Z,9.52
2022-11-17T10:51:26.665Z,8.23
2022-11-17T10:54:15.794Z,8.52
2022-11-17T10:56:45.750Z,7.47
2022-11-17T10:59:16.800Z,7.80
2022-11-17T11:01:45.776Z,8.05
2022-11-17T11:07:12.396Z,8.18
2022-11-17T11:09:52.094Z,8.70
2022-11-17T11:12:46.987Z,8.63
2022-11-17T11:15:22.248Z,9.13
2022-11-17T11:17:49.930Z,8.10
2022-11-17T11:20:19.961Z,9.02
2022-11-17T11:23:34.324Z,9.80
2022-11-17T11:26:17.900Z,8.95
2022-11-17T11:29:03.686Z,9.10
2022-11-17T11:31:36.265Z,8.82
2022-11-17T11:34:08.521Z,10.40
2022-11-17T11:37:13.703Z,10.20
2022-11-17T11:39:59.057Z,11.73
2022-11-17T11:42:47.193Z,12.48
2022-11-17T11:45:18.440Z,13.32
2022-11-17T11:47:48.178Z,13.57
2022-11-17T11:50:14.780Z,16.85
2022-11-17T11:52:46.703Z,32.78
2022-11-17T11:55:22.093Z,19.48
2022-11-17T11:57:55.376Z,26.17
2022-11-17T12:00:22.252Z,27.90
2022-11-17T12:02:58.000Z,21.75
2022-11-17T12:05:59.097Z,16.38
2022-11-17T12:08:42.205Z,20.33
2022-11-17T12:11:33.187Z,30.83
2022-11-17T12:14:00.449Z,26.58
2022-11-17T12:16:35.196Z,18.20
2022-11-17T12:19:02.534Z,16.75
2022-11-17T12:21:29.730Z,17.00
2022-11-17T12:24:08.714Z,18.67
2022-11-17T12:26:36.093Z,14.90
2022-11-17T12:29:21.254Z,16.55
2022-11-17T12:31:55.650Z,17.45
2022-11-17T12:34:31.567Z,15.52
2022-11-17T12:37:15.969Z,16.67
2022-11-17T12:40:05.970Z,15.82
2022-11-17T12:42:33.801Z,15.73
2022-11-17T12:45:11.614Z,16.60
2022-11-17T12:47:59.112Z,15.90
2022-11-17T12:50:48.685Z,17.00
2022-11-17T12:53:22.395Z,16.55
2022-11-17T12:55:55.028Z,20.33
2022-11-17T12:58:46.357Z,14.85
2022-11-17T13:01:21.650Z,19.20
2022-11-17T13:04:10.306Z,14.02
2022-11-17T13:06:37.381Z,13.40
2022-11-17T13:09:12.087Z,14.93
2022-11-17T13:11:38.833Z,23.95
2022-11-17T13:14:16.521Z,14.10
2022-11-17T13:16:50.432Z,13.38
2022-11-17T13:19:37.026Z,12.60
2022-11-17T13:22:11.354Z,28.80
2022-11-17T13:24:39.788Z,47.00
2022-11-17T13:27:17.037Z,10.35
2022-11-17T13:29:43.712Z,10.70
2022-11-17T13:32:22.085Z,10.93
2022-11-17T13:34:54.033Z,9.63
2022-11-17T13:37:23.661Z,10.68
2022-11-17T13:40:19.889Z,8.27
2022-11-17T13:42:46.973Z,9.50
2022-11-17T13:45:15.424Z,9.23
2022-11-17T13:47:47.265Z,17.90
2022-11-17T13:50:32.093Z,22.17
2022-11-17T13:53:10.337Z,10.90
2022-11-17T13:55:37.171Z,25.40
2022-11-17T13:58:22.221Z,15.95
2022-11-17T14:00:52.817Z,13.02
2022-11-17T14:03:45.527Z,9.95
2022-11-17T14:06:13.689Z,9.43
2022-11-17T14:08:42.117Z,10.20
2022-11-17T14:11:14.327Z,11.98
2022-11-17T14:13:58.818Z,12.38
2022-11-17T14:16:31.249Z,14.90
2022-11-17T14:19:03.686Z,15.63
2022-11-17T14:21:30.925Z,18.35
2022-11-17T14:24:06.828Z,15.43
2022-11-17T14:26:33.572Z,15.20
2022-11-17T14:29:02.308Z,16.67
2022-11-17T14:31:30.618Z,14.95
2022-11-17T14:33:57.761Z,16.50
2022-11-17T14:36:24.740Z,16.98
2022-11-17T14:38:51.792Z,17.50
2022-11-17T14:41:19.167Z,17.92
2022-11-17T14:43:46.019Z,23.80
2022-11-17T14:46:32.912Z,20.05
2022-11-17T14:48:59.846Z,18.08
2022-11-17T14:51:26.545Z,17.63
2022-11-17T14:53:54.244Z,16.38
2022-11-17T14:56:23.818Z,17.75
2022-11-17T14:58:58.653Z,15.60
2022-11-17T15:01:29.376Z,17.02
2022-11-17T15:03:58.400Z,13.30
2022-11-17T15:06:25.707Z,16.38
2022-11-17T15:09:07.994Z,15.32
2022-11-17T15:11:39.274Z,12.70
2022-11-17T15:14:06.961Z,13.35
2022-11-17T15:16:33.867Z,19.38
2022-11-17T15:19:00.517Z,9.52
2022-11-17T15:21:27.192Z,14.32
2022-11-17T15:23:53.950Z,10.13
2022-11-17T15:26:23.450Z,11.50
2022-11-17T15:28:50.103Z,11.02
2022-11-17T15:31:19.299Z,9.93
2022-11-17T15:33:47.513Z,7.90
2022-11-17T15:36:16.709Z,14.18
2022-11-17T15:41:11.488Z,12.32
2022-11-17T15:43:39.618Z,19.80
2022-11-17T15:46:08.325Z,21.48
2022-11-17T15:48:38.909Z,17.27
2022-11-17T15:51:06.380Z,18.70
2022-11-17T15:53:36.818Z,12.45
2022-11-17T15:56:04.872Z,8.35
2022-11-17T15:58:32.106Z,26.77
2022-11-17T16:01:09.750Z,16.42
2022-11-17T16:03:36.623Z,34.83
2022-11-17T16:06:03.944Z,9.43
2022-11-17T16:08:31.614Z,13.75
2022-11-17T16:10:58.437Z,8.52
2022-11-17T16:13:25.120Z,6.97
2022-11-17T16:15:52.581Z,5.25
2022-11-17T16:18:19.596Z,6.72
2022-11-17T16:20:46.484Z,6.75
2022-11-17T16:23:14.394Z,5.93
2022-11-17T16:25:41.852Z,7.22
2022-11-17T16:28:09.076Z,15.75
2022-11-17T16:30:36.376Z,10.52
2022-11-17T16:33:14.006Z,13.18
2022-11-17T16:35:41.286Z,10.60
2022-11-17T16:38:12.600Z,10.27
2022-11-17T16:40:39.995Z,22.15
2022-11-17T16:43:06.887Z,28.23
2022-11-17T16:45:42.829Z,21.75
2022-11-17T16:48:09.694Z,14.77
2022-11-17T16:50:37.612Z,16.65
2022-11-17T16:53:04.830Z,20.83
2022-11-17T16:55:38.292Z,14.82
2022-11-17T16:58:06.284Z,19.88
2022-11-17T17:00:34.918Z,17.92
2022-11-17T17:03:02.381Z,16.73
2022-11-17T17:05:34.516Z,23.15
2022-11-17T17:08:01.238Z,23.58
2022-11-17T17:10:27.885Z,16.33
2022-11-17T17:12:54.570Z,17.85
2022-11-17T17:15:21.220Z,21.00
2022-11-17T17:17:47.929Z,20.40
2022-11-17T17:20:14.897Z,21.15
2022-11-17T17:22:41.528Z,22.27
2022-11-17T17:25:09.424Z,22.33
2022-11-17T17:27:36.171Z,13.70
2022-11-17T17:30:02.937Z,14.27
2022-11-17T17:32:29.580Z,18.45
2022-11-17T17:34:56.284Z,13.32
2022-11-17T17:37:22.973Z,25.23
2022-11-17T17:39:49.613Z,16.70
2022-11-17T17:42:16.393Z,16.15
2022-11-17T17:44:43.030Z,18.02
2022-11-17T17:47:09.698Z,23.40
2022-11-17T17:49:36.452Z,22.98
2022-11-17T17:52:03.175Z,16.08
2022-11-17T17:54:29.832Z,18.10
2022-11-17T17:56:57.825Z,23.48
2022-11-17T17:59:24.493Z,14.80
2022-11-17T18:01:51.584Z,16.40
2022-11-17T18:04:18.287Z,15.27
2022-11-17T18:06:47.501Z,13.10
2022-11-17T18:09:15.716Z,12.60
2022-11-17T18:11:46.092Z,15.80
2022-11-17T18:14:13.474Z,14.63
2022-11-17T18:16:40.853Z,15.88
2022-11-17T18:19:09.105Z,13.93
2022-11-17T18:21:36.268Z,12.23
2022-11-17T18:24:03.202Z,14.90
2022-11-17T18:26:32.098Z,16.38
2022-11-17T18:29:01.453Z,15.65
2022-11-17T18:31:29.860Z,16.73
2022-11-17T18:34:01.848Z,14.90
2022-11-17T18:36:28.714Z,18.23
2022-11-17T18:38:56.726Z,26.25
2022-11-17T18:41:23.809Z,28.38
2022-11-17T18:43:50.980Z,19.02
2022-11-17T18:46:19.768Z,19.98
2022-11-17T18:48:47.997Z,22.15
2022-11-17T18:51:20.991Z,18.55
2022-11-17T18:53:53.198Z,16.48
2022-11-17T18:56:25.559Z,15.55
2022-11-17T18:58:52.733Z,14.95
2022-11-17T19:01:24.744Z,17.60
2022-11-17T19:03:53.305Z,14.48
2022-11-17T19:06:21.301Z,14.75
2022-11-17T19:08:48.605Z,14.88
2022-11-17T19:11:17.184Z,16.70
2022-11-17T19:13:44.628Z,15.65
2022-11-17T19:16:13.957Z,24.05
2022-11-17T19:18:41.197Z,18.33
2022-11-17T19:21:09.866Z,21.90
2022-11-17T19:23:38.473Z,19.33
2022-11-17T19:26:06.680Z,19.40
2022-11-17T19:28:33.505Z,18.58
2022-11-17T19:31:02.129Z,14.05
2022-11-17T19:33:30.442Z,18.25
2022-11-17T19:35:57.116Z,16.42
2022-11-17T19:38:23.758Z,16.65
2022-11-17T19:40:50.449Z,15.73
2022-11-17T19:43:19.225Z,17.17
2022-11-17T19:45:45.950Z,36.35
2022-11-17T19:48:12.604Z,44.55
2022-11-17T19:50:39.352Z,25.90
2022-11-17T19:53:05.969Z,24.30
2022-11-17T19:55:34.479Z,20.73
2022-11-17T19:58:01.108Z,14.65
2022-11-17T20:00:27.813Z,18.75
2022-11-17T20:02:54.429Z,18.55
2022-11-17T20:05:21.110Z,17.65
2022-11-17T20:07:47.748Z,16.75
2022-11-17T20:10:14.501Z,16.85
2022-11-17T20:12:43.406Z,18.70
2022-11-17T20:15:21.965Z,26.42
2022-11-17T20:17:56.940Z,19.60
2022-11-17T20:20:23.664Z,22.38
2022-11-17T20:22:50.683Z,15.23
2022-11-17T20:25:17.369Z,15.07
2022-11-17T20:27:44.130Z,16.65
2022-11-17T20:30:15.218Z,14.35
2022-11-17T20:32:42.177Z,13.35
2022-11-17T20:35:09.177Z,16.42
2022-11-17T20:37:35.840Z,19.30
2022-11-17T20:40:02.499Z,14.20
2022-11-17T20:42:29.203Z,15.10
2022-11-17T20:44:55.840Z,15.50
2022-11-17T20:47:27.496Z,14.88
2022-11-17T20:49:55.293Z,9.82
2022-11-17T20:52:21.960Z,9.60
2022-11-17T20:54:48.696Z,9.40
2022-11-17T20:57:15.361Z,10.05
2022-11-17T20:59:42.007Z,10.75
2022-11-17T21:02:10.940Z,9.68
2022-11-17T21:04:37.622Z,9.60
2022-11-17T21:07:04.682Z,9.98
2022-11-17T21:09:31.358Z,8.95
2022-11-17T21:11:58.078Z,9.70
2022-11-17T21:14:26.561Z,9.02
2022-11-17T21:16:54.574Z,8.45
2022-11-17T21:19:21.596Z,10.10
2022-11-17T21:21:50.439Z,7.82
2022-11-17T21:24:17.381Z,8.48
2022-11-17T21:26:44.125Z,9.48
2022-11-17T21:29:10.807Z,9.32
2022-11-17T21:31:37.607Z,8.32
2022-11-17T21:34:06.604Z,8.07
2022-11-17T21:36:34.587Z,7.97
2022-11-17T21:39:01.498Z,7.05
2022-11-17T21:41:30.400Z,7.18
2022-11-17T21:44:02.012Z,6.30
2022-11-17T21:46:34.703Z,6.03
2022-11-17T21:49:01.620Z,5.82
2022-11-17T21:51:33.885Z,5.00
2022-11-17T21:54:02.832Z,5.15
2022-11-17T21:56:29.992Z,8.15
2022-11-17T21:59:01.387Z,6.88
2022-11-17T22:01:29.365Z,5.43
2022-11-17T22:03:56.137Z,5.63
2022-11-17T22:06:23.857Z,5.00
2022-11-17T22:08:50.872Z,5.57
2022-11-17T22:11:35.576Z,4.72
2022-11-17T22:14:15.604Z,6.18
2022-11-17T22:16:47.591Z,4.65
2022-11-17T22:19:16.431Z,4.97
2022-11-17T22:21:43.991Z,4.45
2022-11-17T22:24:12.008Z,5.07
2022-11-17T22:26:41.169Z,5.18
2022-11-17T22:29:14.321Z,4.43
2022-11-17T22:31:41.516Z,4.13
2022-11-17T22:34:08.631Z,4.68
2022-11-17T22:36:35.280Z,3.97
2022-11-17T22:39:02.089Z,4.60
2022-11-17T22:41:28.729Z,4.80
2022-11-17T22:43:56.800Z,4.47
2022-11-17T22:46:25.662Z,4.65
2022-11-17T22:48:52.844Z,4.40
2022-11-17T22:51:38.434Z,4.40
2022-11-17T22:54:06.330Z,4.50
2022-11-17T22:56:33.413Z,4.32
2022-11-17T22:59:00.258Z,4.40
2022-11-17T23:01:27.564Z,4.20
2022-11-17T23:03:54.315Z,4.72
2022-11-17T23:06:22.720Z,4.30
2022-11-17T23:08:49.753Z,4.20
2022-11-17T23:11:35.995Z,5.32
2022-11-17T23:14:03.297Z,4.20
2022-11-17T23:16:30.136Z,4.88
2022-11-17T23:18:57.035Z,4.03
2022-11-17T23:21:24.140Z,4.50
2022-11-17T23:23:50.872Z,4.85
2022-11-17T23:26:17.571Z,5.03
2022-11-17T23:28:44.297Z,4.13
2022-11-17T23:31:14.026Z,4.15
2022-11-17T23:33:42.567Z,4.32
2022-11-17T23:36:20.584Z,4.07
2022-11-17T23:38:48.033Z,4.07
2022-11-17T23:41:16.404Z,4.18
2022-11-17T23:43:43.480Z,5.05
2022-11-17T23:46:13.194Z,4.72
2022-11-17T23:48:40.643Z,5.20
2022-11-17T23:51:09.348Z,4.43
2022-11-17T23:53:36.098Z,4.18
2022-11-17T23:56:03.937Z,4.32
2022-11-17T23:58:31.155Z,4.38
